createdAt,value
2022-08-24T00:01:59.571Z,93.10
2022-08-24T00:04:28.349Z,93.10
2022-08-24T00:07:17.965Z,93.10
2022-08-24T00:10:00.521Z,93.20
2022-08-24T00:12:28.995Z,93.20
2022-08-24T00:14:58.931Z,93.20
2022-08-24T00:17:30.826Z,93.20
2022-08-24T00:20:00.537Z,93.60
2022-08-24T00:22:28.998Z,93.30
2022-08-24T00:25:00.768Z,93.30
2022-08-24T00:27:28.001Z,93.30
2022-08-24T00:29:59.732Z,93.30
2022-08-24T00:32:29.458Z,93.40
2022-08-24T00:34:58.723Z,93.50
2022-08-24T00:37:31.411Z,93.50
2022-08-24T00:40:01.369Z,93.60
2022-08-24T00:42:31.000Z,93.60
2022-08-24T00:45:00.628Z,93.50
2022-08-24T00:47:47.593Z,93.70
2022-08-24T00:50:25.393Z,94.10
2022-08-24T00:52:58.055Z,93.80
2022-08-24T00:55:36.376Z,93.70
2022-08-24T00:58:11.166Z,93.80
2022-08-24T01:00:49.647Z,93.80
2022-08-24T01:03:19.793Z,93.90
2022-08-24T01:05:49.141Z,93.80
2022-08-24T01:08:21.802Z,93.80
2022-08-24T01:11:00.409Z,94.00
2022-08-24T01:13:28.814Z,94.00
2022-08-24T01:16:04.707Z,94.00
2022-08-24T01:18:50.255Z,94.00
2022-08-24T01:21:38.275Z,94.00
2022-08-24T01:24:15.132Z,94.00
2022-08-24T01:26:49.778Z,94.20
2022-08-24T01:29:23.853Z,94.20
2022-08-24T01:31:51.752Z,94.10
2022-08-24T01:34:21.423Z,94.10
2022-08-24T01:36:51.805Z,94.00
2022-08-24T01:39:40.534Z,94.00
2022-08-24T01:42:14.405Z,94.30
2022-08-24T01:44:55.038Z,94.20
2022-08-24T01:47:22.261Z,94.20
2022-08-24T01:49:52.536Z,94.30
2022-08-24T01:52:25.193Z,94.30
2022-08-24T01:54:53.662Z,94.30
2022-08-24T01:57:24.198Z,94.30
2022-08-24T01:59:54.261Z,94.30
2022-08-24T02:02:29.509Z,94.40
2022-08-24T02:04:56.943Z,94.50
2022-08-24T02:07:26.647Z,94.40
2022-08-24T02:10:01.142Z,94.40
2022-08-24T02:12:30.804Z,94.40
2022-08-24T02:15:02.611Z,94.50
2022-08-24T02:17:29.805Z,94.50
2022-08-24T02:19:59.391Z,94.50
2022-08-24T02:22:27.044Z,94.50
2022-08-24T02:24:54.285Z,94.60
2022-08-24T02:27:21.430Z,94.60
2022-08-24T02:29:51.064Z,94.50
2022-08-24T02:32:18.422Z,94.50
2022-08-24T02:34:47.922Z,94.60
2022-08-24T02:37:19.378Z,94.50
2022-08-24T02:39:46.557Z,94.60
2022-08-24T02:42:15.441Z,94.60
2022-08-24T02:44:48.137Z,94.60
2022-08-24T02:47:18.340Z,94.60
2022-08-24T02:49:45.586Z,94.70
2022-08-24T02:52:15.139Z,94.70
2022-08-24T02:54:42.339Z,94.70
2022-08-24T02:57:12.013Z,94.70
2022-08-24T02:59:44.183Z,94.80
2022-08-24T03:02:11.752Z,94.80
2022-08-24T03:04:39.038Z,94.80
2022-08-24T03:07:08.353Z,94.70
2022-08-24T03:09:35.550Z,94.80
2022-08-24T03:12:03.033Z,94.80
2022-08-24T03:14:30.414Z,94.70
2022-08-24T03:17:01.963Z,94.70
2022-08-24T03:19:32.225Z,94.90
2022-08-24T03:21:59.448Z,94.70
2022-08-24T03:24:26.702Z,94.80
2022-08-24T03:26:54.019Z,94.90
2022-08-24T03:29:24.198Z,94.90
2022-08-24T03:31:53.616Z,94.90
2022-08-24T03:34:20.974Z,95.00
2022-08-24T03:36:52.650Z,95.00
2022-08-24T03:39:22.357Z,95.00
2022-08-24T03:41:52.097Z,95.00
2022-08-24T03:44:23.310Z,95.00
2022-08-24T03:46:50.630Z,95.00
2022-08-24T03:49:20.741Z,95.00
2022-08-24T03:51:53.181Z,95.00
2022-08-24T03:54:20.423Z,95.10
2022-08-24T03:56:50.153Z,95.10
2022-08-24T03:59:19.990Z,95.20
2022-08-24T04:01:49.885Z,95.10
2022-08-24T04:04:19.461Z,95.20
2022-08-24T04:06:51.330Z,95.20
2022-08-24T04:09:21.337Z,95.20
2022-08-24T04:11:54.179Z,95.20
2022-08-24T04:14:26.701Z,95.30
2022-08-24T04:16:59.573Z,95.30
2022-08-24T04:19:29.431Z,95.30
2022-08-24T04:21:59.022Z,95.30
2022-08-24T04:24:26.977Z,95.30
2022-08-24T04:26:56.500Z,95.30
2022-08-24T04:29:26.085Z,95.30
2022-08-24T04:31:54.342Z,95.40
2022-08-24T04:34:28.866Z,95.30
2022-08-24T04:36:56.098Z,95.40
2022-08-24T04:39:28.339Z,95.40
2022-08-24T04:42:02.970Z,95.40
2022-08-24T04:44:33.192Z,95.50
2022-08-24T04:47:04.043Z,95.50
2022-08-24T04:49:31.282Z,95.50
2022-08-24T04:52:01.387Z,95.50
2022-08-24T04:54:28.518Z,95.60
2022-08-24T04:56:57.863Z,95.60
2022-08-24T04:59:25.013Z,95.60
2022-08-24T05:01:54.656Z,95.60
2022-08-24T05:04:22.007Z,95.60
2022-08-24T05:06:53.220Z,95.60
2022-08-24T05:09:21.709Z,95.60
2022-08-24T05:11:49.927Z,95.70
2022-08-24T05:14:20.677Z,95.60
2022-08-24T05:16:53.157Z,95.70
2022-08-24T05:19:26.090Z,95.70
2022-08-24T05:21:53.509Z,95.80
2022-08-24T05:24:21.035Z,95.80
2022-08-24T05:26:52.391Z,95.80
2022-08-24T05:29:20.337Z,95.80
2022-08-24T05:31:47.760Z,95.80
2022-08-24T05:34:18.678Z,95.80
2022-08-24T05:36:46.113Z,95.80
2022-08-24T05:39:14.662Z,95.90
2022-08-24T05:41:44.653Z,95.80
2022-08-24T05:44:13.488Z,95.80
2022-08-24T05:46:41.410Z,95.90
2022-08-24T05:49:13.835Z,95.90
2022-08-24T05:51:42.719Z,95.90
2022-08-24T05:54:13.589Z,96.00
2022-08-24T05:56:42.945Z,96.00
2022-08-24T05:59:10.585Z,96.00
2022-08-24T06:01:45.481Z,96.10
2022-08-24T06:04:20.049Z,96.20
2022-08-24T06:06:50.109Z,96.10
2022-08-24T06:09:17.585Z,96.20
2022-08-24T06:11:48.560Z,96.10
2022-08-24T06:14:23.946Z,96.20
2022-08-24T06:17:02.076Z,96.20
2022-08-24T06:19:29.307Z,96.20
2022-08-24T06:21:56.566Z,96.30
2022-08-24T06:24:45.744Z,96.30
2022-08-24T06:27:21.693Z,96.40
2022-08-24T06:29:52.820Z,96.70
2022-08-24T06:32:22.560Z,96.50
2022-08-24T06:34:50.516Z,96.50
2022-08-24T06:37:20.243Z,96.80
2022-08-24T06:39:54.989Z,96.50
2022-08-24T06:42:24.975Z,96.60
2022-08-24T06:44:56.977Z,96.60
2022-08-24T06:47:28.733Z,96.70
2022-08-24T06:50:01.437Z,96.80
2022-08-24T06:52:28.732Z,96.80
2022-08-24T06:54:58.522Z,96.90
2022-08-24T06:57:25.720Z,96.90
2022-08-24T06:59:55.946Z,97.00
2022-08-24T07:02:25.658Z,97.10
2022-08-24T07:04:57.196Z,97.10
2022-08-24T07:07:26.497Z,97.10
2022-08-24T07:09:56.357Z,97.10
2022-08-24T07:12:27.048Z,97.10
2022-08-24T07:14:55.329Z,97.20
2022-08-24T07:17:23.009Z,97.20
2022-08-24T07:19:52.682Z,97.30
2022-08-24T07:22:22.491Z,97.40
2022-08-24T07:24:49.770Z,97.50
2022-08-24T07:27:23.322Z,97.80
2022-08-24T07:30:23.241Z,97.60
2022-08-24T07:32:47.074Z,97.60
2022-08-24T07:35:14.239Z,97.60
2022-08-24T07:37:43.679Z,97.80
2022-08-24T07:40:16.453Z,97.80
2022-08-24T07:42:53.602Z,97.80
2022-08-24T07:45:22.500Z,98.00
2022-08-24T07:47:55.489Z,98.00
2022-08-24T07:50:23.289Z,98.00
2022-08-24T07:52:55.203Z,98.00
2022-08-24T07:55:25.381Z,98.00
2022-08-24T07:57:52.936Z,98.10
2022-08-24T08:00:21.493Z,98.10
2022-08-24T08:02:52.081Z,98.20
2022-08-24T08:05:22.635Z,98.50
2022-08-24T08:07:53.070Z,98.30
2022-08-24T08:10:25.703Z,98.30
2022-08-24T08:12:52.974Z,98.40
2022-08-24T08:15:22.726Z,98.40
2022-08-24T08:18:02.787Z,98.40
2022-08-24T08:20:32.573Z,98.40
2022-08-24T08:23:18.268Z,98.50
2022-08-24T08:25:54.463Z,98.50
2022-08-24T08:28:26.225Z,98.60
2022-08-24T08:31:06.445Z,98.60
2022-08-24T08:33:36.344Z,98.60
2022-08-24T08:36:12.716Z,98.60
2022-08-24T08:38:41.036Z,98.80
2022-08-24T08:41:24.577Z,98.70
2022-08-24T08:44:12.130Z,99.00
2022-08-24T08:47:02.815Z,98.80
2022-08-24T08:49:48.589Z,98.80
2022-08-24T08:52:36.874Z,98.70
2022-08-24T08:55:44.216Z,98.80
2022-08-24T08:58:33.235Z,98.80
2022-08-24T09:01:32.840Z,98.80
2022-08-24T09:04:21.395Z,98.90
2022-08-24T09:07:17.274Z,98.90
2022-08-24T09:09:52.573Z,98.90
2022-08-24T09:13:14.966Z,98.90
2022-08-24T09:15:47.348Z,98.90
2022-08-24T09:18:32.731Z,98.80
2022-08-24T09:21:21.046Z,98.80
2022-08-24T09:24:15.962Z,98.70
2022-08-24T09:27:21.709Z,98.60
2022-08-24T09:30:18.427Z,98.50
2022-08-24T09:33:00.363Z,98.50
2022-08-24T09:35:51.195Z,98.60
2022-08-24T09:38:31.865Z,98.40
2022-08-24T09:41:23.681Z,98.60
2022-08-24T09:44:06.219Z,98.20
2022-08-24T09:47:12.273Z,98.20
2022-08-24T09:50:06.739Z,98.20
2022-08-24T09:52:39.661Z,98.20
2022-08-24T09:55:15.772Z,97.60
2022-08-24T09:58:14.930Z,97.90
2022-08-24T10:00:47.225Z,98.20
2022-08-24T10:03:38.946Z,97.70
2022-08-24T10:06:15.301Z,97.40
2022-08-24T10:09:13.707Z,97.30
2022-08-24T10:12:24.966Z,97.60
2022-08-24T10:15:12.462Z,97.20
2022-08-24T10:18:07.979Z,97.70
2022-08-24T10:20:50.639Z,97.10
2022-08-24T10:23:58.832Z,97.50
2022-08-24T10:26:34.237Z,97.30
2022-08-24T10:29:07.446Z,97.60
2022-08-24T10:31:57.964Z,97.70
2022-08-24T10:35:00.187Z,97.50
2022-08-24T10:38:18.588Z,97.40
2022-08-24T10:41:01.587Z,96.30
2022-08-24T10:43:46.338Z,96.50
2022-08-24T10:46:38.340Z,96.60
2022-08-24T10:49:39.343Z,96.90
2022-08-24T10:52:31.543Z,97.10
2022-08-24T10:55:17.166Z,96.80
2022-08-24T10:58:10.338Z,96.60
2022-08-24T11:00:37.907Z,96.00
2022-08-24T11:03:18.477Z,96.20
2022-08-24T11:05:53.937Z,96.00
2022-08-24T11:08:27.202Z,96.30
2022-08-24T11:11:06.828Z,96.60
2022-08-24T11:13:50.678Z,96.20
2022-08-24T11:16:38.715Z,96.10
2022-08-24T11:19:25.941Z,96.80
2022-08-24T11:21:57.768Z,96.40
2022-08-24T11:24:46.297Z,95.30
2022-08-24T11:27:16.564Z,94.80
2022-08-24T11:29:49.665Z,95.80
2022-08-24T11:32:45.426Z,96.00
2022-08-24T11:35:21.745Z,95.10
2022-08-24T11:37:57.762Z,95.70
2022-08-24T11:40:33.934Z,95.90
2022-08-24T11:43:32.963Z,95.50
2022-08-24T11:46:12.220Z,94.80
2022-08-24T11:48:51.923Z,95.00
2022-08-24T11:51:35.741Z,95.30
2022-08-24T11:54:12.242Z,95.40
2022-08-24T11:57:18.157Z,95.00
2022-08-24T12:00:14.026Z,95.60
2022-08-24T12:03:03.226Z,95.50
2022-08-24T12:05:55.382Z,94.80
2022-08-24T12:08:31.406Z,94.90
2022-08-24T12:11:04.173Z,94.00
2022-08-24T12:13:43.675Z,94.90
2022-08-24T12:16:20.558Z,94.70
2022-08-24T12:19:07.504Z,94.90
2022-08-24T12:21:41.095Z,95.00
2022-08-24T12:24:22.813Z,95.10
2022-08-24T12:26:57.149Z,95.20
2022-08-24T12:29:40.675Z,95.00
2022-08-24T12:32:13.885Z,94.70
2022-08-24T12:35:10.075Z,94.50
2022-08-24T12:37:45.346Z,94.40
2022-08-24T12:40:33.872Z,94.10
2022-08-24T12:43:23.268Z,94.00
2022-08-24T12:45:59.460Z,94.30
2022-08-24T12:48:31.373Z,93.70
2022-08-24T12:51:39.177Z,94.40
2022-08-24T12:54:33.208Z,94.30
2022-08-24T12:57:27.176Z,94.50
2022-08-24T13:00:07.074Z,93.20
2022-08-24T13:02:48.204Z,94.30
2022-08-24T13:05:20.771Z,92.70
2022-08-24T13:07:54.959Z,93.50
2022-08-24T13:10:24.943Z,93.90
2022-08-24T13:13:04.343Z,94.10
2022-08-24T13:15:31.527Z,94.30
2022-08-24T13:18:07.740Z,94.40
2022-08-24T13:20:36.156Z,94.50
2022-08-24T13:23:16.058Z,94.20
2022-08-24T13:25:51.284Z,94.30
2022-08-24T13:28:24.299Z,94.30
2022-08-24T13:31:17.745Z,94.50
2022-08-24T13:34:24.979Z,94.80
2022-08-24T13:37:15.989Z,94.50
2022-08-24T13:40:22.703Z,94.40
2022-08-24T13:43:19.073Z,94.70
2022-08-24T13:46:14.147Z,94.40
2022-08-24T13:48:50.402Z,92.20
2022-08-24T13:51:44.691Z,93.70
2022-08-24T13:54:32.511Z,94.10
2022-08-24T13:57:23.829Z,94.20
2022-08-24T13:59:59.001Z,94.30
2022-08-24T14:02:50.255Z,94.30
2022-08-24T14:05:27.681Z,94.20
2022-08-24T14:08:20.859Z,94.00
2022-08-24T14:11:19.340Z,94.20
2022-08-24T14:14:16.391Z,94.10
2022-08-24T14:17:08.463Z,94.10
2022-08-24T14:20:22.225Z,94.00
2022-08-24T14:23:00.783Z,94.30
2022-08-24T14:25:34.138Z,94.10
2022-08-24T14:28:01.346Z,94.20
2022-08-24T14:30:28.520Z,94.20
2022-08-24T14:33:00.935Z,94.20
2022-08-24T14:35:51.680Z,94.20
2022-08-24T14:38:23.913Z,94.10
2022-08-24T14:41:20.606Z,94.00
2022-08-24T14:44:19.880Z,94.10
2022-08-24T14:47:08.286Z,93.70
2022-08-24T14:49:45.029Z,93.10
2022-08-24T14:52:30.449Z,93.60
2022-08-24T14:55:15.795Z,93.40
2022-08-24T14:58:06.513Z,93.60
2022-08-24T15:00:59.517Z,93.60
2022-08-24T15:03:50.365Z,93.40
2022-08-24T15:06:45.034Z,93.60
2022-08-24T15:09:35.614Z,93.70
2022-08-24T15:12:35.431Z,93.70
2022-08-24T15:15:09.314Z,93.30
2022-08-24T15:17:43.312Z,93.30
2022-08-24T15:20:39.073Z,93.20
2022-08-24T15:23:35.660Z,93.30
2022-08-24T15:26:39.314Z,93.00
2022-08-24T15:29:19.542Z,93.10
2022-08-24T15:32:04.207Z,93.20
2022-08-24T15:34:45.522Z,93.10
2022-08-24T15:37:24.776Z,93.00
2022-08-24T15:39:52.168Z,92.60
2022-08-24T15:42:21.887Z,92.80
2022-08-24T15:44:53.121Z,92.30
2022-08-24T15:47:20.458Z,92.00
2022-08-24T15:49:59.818Z,90.40
2022-08-24T15:52:39.130Z,91.30
2022-08-24T15:55:08.424Z,91.80
2022-08-24T15:57:45.245Z,91.90
2022-08-24T16:00:44.359Z,91.90
2022-08-24T16:03:47.943Z,92.00
2022-08-24T16:06:26.129Z,92.10
2022-08-24T16:09:00.374Z,92.10
2022-08-24T16:12:01.123Z,91.80
2022-08-24T16:14:38.825Z,90.90
2022-08-24T16:17:35.424Z,91.60
2022-08-24T16:20:11.744Z,91.70
2022-08-24T16:22:56.578Z,90.40
2022-08-24T16:25:34.629Z,91.50
2022-08-24T16:28:12.452Z,91.30
2022-08-24T16:30:49.420Z,91.90
2022-08-24T16:33:32.329Z,91.70
2022-08-24T16:36:07.515Z,91.70
2022-08-24T16:38:46.834Z,91.80
2022-08-24T16:41:21.650Z,91.80
2022-08-24T16:43:51.230Z,91.80
2022-08-24T16:46:28.684Z,92.10
2022-08-24T16:49:02.922Z,91.90
2022-08-24T16:51:35.734Z,91.70
2022-08-24T16:54:10.474Z,91.70
2022-08-24T16:56:40.649Z,91.30
2022-08-24T16:59:14.685Z,91.50
2022-08-24T17:01:50.322Z,91.80
2022-08-24T17:04:20.223Z,91.20
2022-08-24T17:06:50.937Z,91.40
2022-08-24T17:09:21.195Z,91.20
2022-08-24T17:11:53.193Z,90.60
2022-08-24T17:14:24.953Z,90.80
2022-08-24T17:16:55.108Z,90.30
2022-08-24T17:19:22.420Z,89.20
2022-08-24T17:21:54.267Z,90.30
2022-08-24T17:24:22.950Z,90.30
2022-08-24T17:26:54.503Z,90.10
2022-08-24T17:29:24.883Z,90.10
2022-08-24T17:31:54.642Z,90.00
2022-08-24T17:34:29.644Z,89.50
2022-08-24T17:37:02.550Z,89.80
2022-08-24T17:39:32.030Z,89.90
2022-08-24T17:42:00.277Z,90.00
2022-08-24T17:44:33.502Z,90.00
2022-08-24T17:47:05.024Z,90.20
2022-08-24T17:49:34.926Z,90.30
2022-08-24T17:52:02.522Z,90.00
2022-08-24T17:54:32.362Z,90.00
2022-08-24T17:57:07.108Z,90.20
2022-08-24T17:59:38.593Z,90.30
2022-08-24T18:02:14.747Z,90.30
2022-08-24T18:04:44.597Z,90.40
2022-08-24T18:07:35.781Z,90.40
2022-08-24T18:10:08.796Z,90.40
2022-08-24T18:12:36.013Z,90.00
2022-08-24T18:15:08.599Z,90.20
2022-08-24T18:17:51.266Z,90.30
2022-08-24T18:20:28.257Z,90.20
2022-08-24T18:22:58.089Z,90.20
2022-08-24T18:25:28.218Z,90.30
2022-08-24T18:27:57.588Z,90.30
2022-08-24T18:30:28.954Z,90.20
2022-08-24T18:33:01.858Z,90.20
2022-08-24T18:35:30.792Z,90.20
2022-08-24T18:38:00.793Z,90.10
2022-08-24T18:40:33.213Z,90.10
2022-08-24T18:43:04.186Z,90.10
2022-08-24T18:45:33.028Z,90.10
2022-08-24T18:48:02.957Z,90.40
2022-08-24T18:50:36.818Z,90.10
2022-08-24T18:53:10.327Z,90.10
2022-08-24T18:55:38.983Z,90.10
2022-08-24T18:58:08.494Z,90.00
2022-08-24T19:00:40.205Z,90.00
2022-08-24T19:03:09.507Z,90.00
2022-08-24T19:05:40.145Z,90.00
2022-08-24T19:08:10.019Z,90.00
2022-08-24T19:10:37.736Z,89.90
2022-08-24T19:13:18.373Z,90.00
2022-08-24T19:15:48.175Z,89.70
2022-08-24T19:18:17.806Z,90.00
2022-08-24T19:20:50.557Z,90.00
2022-08-24T19:23:27.268Z,89.90
2022-08-24T19:25:55.008Z,89.80
2022-08-24T19:28:28.023Z,90.00
2022-08-24T19:31:03.731Z,89.90
2022-08-24T19:33:38.333Z,89.90
2022-08-24T19:36:08.799Z,89.90
2022-08-24T19:38:36.066Z,90.00
2022-08-24T19:41:12.806Z,90.00
2022-08-24T19:44:00.856Z,90.00
2022-08-24T19:46:28.286Z,90.00
2022-08-24T19:48:57.875Z,90.00
2022-08-24T19:51:26.034Z,90.00
2022-08-24T19:53:55.596Z,90.00
2022-08-24T19:56:25.078Z,90.00
2022-08-24T19:59:26.047Z,90.00
2022-08-24T20:01:53.581Z,90.00
2022-08-24T20:04:23.863Z,90.00
2022-08-24T20:06:53.747Z,90.00
2022-08-24T20:09:23.593Z,90.00
2022-08-24T20:11:53.490Z,90.00
2022-08-24T20:14:20.905Z,90.00
2022-08-24T20:16:51.021Z,90.00
2022-08-24T20:19:18.543Z,90.00
2022-08-24T20:21:45.841Z,90.00
2022-08-24T20:24:17.794Z,90.00
2022-08-24T20:26:49.943Z,89.90
2022-08-24T20:29:22.303Z,90.00
2022-08-24T20:31:50.703Z,90.00
2022-08-24T20:34:21.854Z,90.00
2022-08-24T20:36:52.874Z,90.00
2022-08-24T20:39:25.883Z,89.90
2022-08-24T20:41:53.445Z,89.90
2022-08-24T20:44:21.520Z,89.80
2022-08-24T20:46:50.607Z,89.70
2022-08-24T20:49:22.254Z,89.70
2022-08-24T20:51:49.506Z,89.70
2022-08-24T20:54:18.941Z,89.80
2022-08-24T20:56:46.157Z,89.80
2022-08-24T20:59:15.918Z,89.80
2022-08-24T21:01:43.143Z,89.80
2022-08-24T21:04:10.876Z,89.90
2022-08-24T21:06:44.574Z,89.80
2022-08-24T21:09:14.792Z,89.90
2022-08-24T21:11:43.219Z,89.90
2022-08-24T21:14:12.964Z,90.00
2022-08-24T21:16:46.207Z,89.90
2022-08-24T21:19:17.807Z,90.00
2022-08-24T21:21:46.903Z,90.00
2022-08-24T21:24:19.531Z,90.00
2022-08-24T21:26:50.885Z,90.00
2022-08-24T21:29:20.336Z,90.00
2022-08-24T21:32:07.556Z,90.00
2022-08-24T21:34:42.985Z,90.00
2022-08-24T21:37:18.739Z,90.00
2022-08-24T21:39:48.642Z,90.00
2022-08-24T21:42:21.471Z,90.10
2022-08-24T21:44:51.229Z,90.00
2022-08-24T21:47:20.573Z,90.00
2022-08-24T21:49:52.880Z,90.10
2022-08-24T21:52:22.267Z,90.00
2022-08-24T21:54:49.545Z,90.10
2022-08-24T21:57:24.638Z,90.00
2022-08-24T21:59:54.385Z,90.10
2022-08-24T22:02:25.577Z,90.00
2022-08-24T22:04:56.601Z,90.00
2022-08-24T22:07:24.784Z,90.10
2022-08-24T22:09:54.301Z,90.10
2022-08-24T22:12:21.556Z,90.20
2022-08-24T22:14:48.824Z,90.20
2022-08-24T22:17:16.103Z,90.30
2022-08-24T22:19:45.669Z,90.20
2022-08-24T22:22:12.886Z,90.20
2022-08-24T22:24:42.668Z,90.20
2022-08-24T22:27:14.824Z,90.30
2022-08-24T22:29:44.496Z,90.30
2022-08-24T22:32:12.657Z,90.30
2022-08-24T22:34:40.012Z,90.30
2022-08-24T22:37:07.328Z,90.30
2022-08-24T22:39:34.528Z,90.30
2022-08-24T22:42:06.711Z,90.30
2022-08-24T22:44:36.570Z,90.30
2022-08-24T22:47:12.951Z,90.40
2022-08-24T22:49:45.634Z,90.40
2022-08-24T22:52:14.409Z,90.40
2022-08-24T22:54:43.784Z,90.40
2022-08-24T22:57:13.469Z,90.50
2022-08-24T22:59:44.879Z,90.50
2022-08-24T23:02:16.723Z,90.50
2022-08-24T23:04:49.920Z,90.50
2022-08-24T23:07:22.237Z,90.50
2022-08-24T23:09:50.064Z,90.60
2022-08-24T23:12:22.561Z,90.60
2022-08-24T23:14:51.806Z,90.60
2022-08-24T23:17:22.710Z,90.60
2022-08-24T23:20:01.945Z,90.60
2022-08-24T23:22:39.863Z,90.70
2022-08-24T23:25:09.348Z,90.70
2022-08-24T23:27:37.867Z,90.70
2022-08-24T23:30:09.567Z,90.70
2022-08-24T23:32:39.833Z,90.80
2022-08-24T23:35:07.329Z,90.80
2022-08-24T23:37:39.450Z,90.80
2022-08-24T23:40:07.351Z,90.80
2022-08-24T23:42:36.786Z,90.80
2022-08-24T23:45:08.820Z,90.80
2022-08-24T23:47:40.361Z,90.90
2022-08-24T23:50:11.375Z,90.80
2022-08-24T23:52:39.273Z,90.90
2022-08-24T23:55:20.201Z,91.30
2022-08-24T23:57:52.169Z,91.00
